createdAt,value
2019-02-28T00:00:41.425Z,77.93
2019-02-28T00:03:13.946Z,78.68
2019-02-28T00:05:45.117Z,78.01
2019-02-28T00:08:17.363Z,78.82
2019-02-28T00:10:48.798Z,79.26
2019-02-28T00:13:21.687Z,78.60
2019-02-28T00:15:53.180Z,78.90
2019-02-28T00:18:25.774Z,78.93
2019-02-28T00:20:57.253Z,78.14
2019-02-28T00:23:28.711Z,78.11
2019-02-28T00:25:59.959Z,78.21
2019-02-28T00:28:31.396Z,78.60
2019-02-28T00:31:03.907Z,78.45
2019-02-28T00:33:35.294Z,78.45
2019-02-28T00:36:06.680Z,78.09
2019-02-28T00:38:38.127Z,78.53
2019-02-28T00:41:10.263Z,78.31
2019-02-28T00:43:40.951Z,77.52
2019-02-28T00:46:12.007Z,78.02
2019-02-28T00:48:43.332Z,78.38
2019-02-28T00:51:14.771Z,79.26
2019-02-28T00:53:46.148Z,78.86
2019-02-28T00:56:18.305Z,77.64
2019-02-28T00:58:49.792Z,78.02
2019-02-28T01:01:21.091Z,77.36
2019-02-28T01:03:53.453Z,77.84
2019-02-28T01:06:24.843Z,78.01
2019-02-28T01:08:56.784Z,78.22
2019-02-28T01:11:28.064Z,77.62
2019-02-28T01:14:01.571Z,78.47
2019-02-28T01:16:32.449Z,79.05
2019-02-28T01:19:08.736Z,78.00
2019-02-28T01:21:36.982Z,77.94
2019-02-28T01:24:08.374Z,79.04
2019-02-28T01:26:39.766Z,78.79
2019-02-28T01:29:11.103Z,77.95
2019-02-28T01:31:43.362Z,78.49
2019-02-28T01:34:15.154Z,78.97
2019-02-28T01:36:48.669Z,78.79
2019-02-28T01:39:19.634Z,79.41
2019-02-28T01:41:50.966Z,79.35
2019-02-28T01:44:22.394Z,79.22
2019-02-28T01:46:53.720Z,78.89
2019-02-28T01:49:25.940Z,79.13
2019-02-28T01:51:58.347Z,78.75
2019-02-28T01:54:29.828Z,77.97
2019-02-28T01:57:01.220Z,77.89
2019-02-28T01:59:32.563Z,77.95
2019-02-28T02:02:06.774Z,77.77
2019-02-28T02:04:37.006Z,77.75
2019-02-28T02:07:08.423Z,78.53
2019-02-28T02:09:42.739Z,78.67
2019-02-28T02:12:13.066Z,78.45
2019-02-28T02:14:45.649Z,78.70
2019-02-28T02:17:17.426Z,78.48
2019-02-28T02:19:49.411Z,78.71
2019-02-28T02:22:20.315Z,78.87
2019-02-28T02:24:51.460Z,78.51
2019-02-28T02:27:22.790Z,77.35
2019-02-28T02:29:54.034Z,78.16
2019-02-28T02:32:25.287Z,77.68
2019-02-28T02:34:56.625Z,77.74
2019-02-28T02:37:30.301Z,77.76
2019-02-28T02:40:01.076Z,78.94
2019-02-28T02:42:32.901Z,78.99
2019-02-28T02:45:06.466Z,78.35
2019-02-28T02:47:38.285Z,78.56
2019-02-28T02:50:12.831Z,78.41
2019-02-28T02:52:44.195Z,79.17
2019-02-28T02:55:15.695Z,78.55
2019-02-28T02:57:50.923Z,78.20
2019-02-28T03:00:20.330Z,78.33
2019-02-28T03:02:51.668Z,78.32
2019-02-28T03:05:23.133Z,78.68
2019-02-28T03:07:59.453Z,78.72
2019-02-28T03:10:27.877Z,78.49
2019-02-28T03:12:59.348Z,78.33
2019-02-28T03:15:30.768Z,78.39
2019-02-28T03:18:02.226Z,77.62
2019-02-28T03:20:33.693Z,77.92
2019-02-28T03:23:06.255Z,78.15
2019-02-28T03:25:37.704Z,78.08
2019-02-28T03:28:09.190Z,78.37
2019-02-28T03:30:40.740Z,79.09
2019-02-28T03:33:24.173Z,78.42
2019-02-28T03:35:45.097Z,78.36
2019-02-28T03:38:16.493Z,78.62
2019-02-28T03:40:47.871Z,77.80
2019-02-28T03:43:19.409Z,77.91
2019-02-28T03:45:50.850Z,78.03
2019-02-28T03:48:22.317Z,78.15
2019-02-28T03:50:55.314Z,78.44
2019-02-28T03:53:26.723Z,77.98
2019-02-28T03:55:58.115Z,78.10
2019-02-28T03:58:29.478Z,77.79
2019-02-28T04:01:00.881Z,77.56
2019-02-28T04:03:33.683Z,77.68
2019-02-28T04:06:05.291Z,78.05
2019-02-28T04:08:36.764Z,77.82
2019-02-28T04:11:08.022Z,77.82
2019-02-28T04:13:39.476Z,78.33
2019-02-28T04:16:10.859Z,77.95
2019-02-28T04:18:46.222Z,78.14
2019-02-28T04:21:15.478Z,77.82
2019-02-28T04:23:46.785Z,78.16
2019-02-28T04:26:18.141Z,78.08
2019-02-28T04:28:53.478Z,78.33
2019-02-28T04:31:22.695Z,77.74
2019-02-28T04:33:54.136Z,78.08
2019-02-28T04:36:25.577Z,79.14
2019-02-28T04:38:57.021Z,78.49
2019-02-28T04:41:32.498Z,78.38
2019-02-28T04:44:01.432Z,78.35
2019-02-28T04:46:32.950Z,78.64
2019-02-28T04:49:04.368Z,78.79
2019-02-28T04:51:37.093Z,78.21
2019-02-28T04:54:08.808Z,78.52
2019-02-28T04:56:42.333Z,78.85
2019-02-28T04:59:13.333Z,78.57
2019-02-28T05:01:46.183Z,78.35
2019-02-28T05:04:17.892Z,78.75
2019-02-28T05:06:52.144Z,78.77
2019-02-28T05:09:22.322Z,78.43
2019-02-28T05:11:53.759Z,78.50
2019-02-28T05:14:25.141Z,78.29
2019-02-28T05:16:56.528Z,78.53
2019-02-28T05:19:27.942Z,78.30
2019-02-28T05:21:59.225Z,78.31
2019-02-28T05:24:30.608Z,78.30
2019-02-28T05:27:02.263Z,78.17
2019-02-28T05:29:33.499Z,77.92
2019-02-28T05:32:04.852Z,78.03
2019-02-28T05:34:36.176Z,77.86
2019-02-28T05:37:12.271Z,78.40
2019-02-28T05:39:40.644Z,77.97
2019-02-28T05:42:12.121Z,77.48
2019-02-28T05:44:43.542Z,77.13
2019-02-28T05:47:14.992Z,77.13
2019-02-28T05:49:46.339Z,77.33
2019-02-28T05:52:17.716Z,77.00
2019-02-28T05:54:50.378Z,77.11
2019-02-28T05:57:22.331Z,77.56
2019-02-28T05:59:53.773Z,77.56
2019-02-28T06:02:25.727Z,76.74
2019-02-28T06:04:56.453Z,77.35
2019-02-28T06:07:28.748Z,76.34
2019-02-28T06:10:00.639Z,76.73
2019-02-28T06:12:32.172Z,76.44
2019-02-28T06:15:05.620Z,76.79
2019-02-28T06:17:36.978Z,76.50
2019-02-28T06:20:09.699Z,75.97
2019-02-28T06:22:41.034Z,75.80
2019-02-28T06:25:22.263Z,75.80
2019-02-28T06:27:50.286Z,75.14
2019-02-28T06:30:19.860Z,75.69
2019-02-28T06:32:51.154Z,76.20
2019-02-28T06:35:22.472Z,76.00
2019-02-28T06:37:53.794Z,75.94
2019-02-28T06:40:25.165Z,76.14
2019-02-28T06:42:56.510Z,74.88
2019-02-28T06:45:27.986Z,75.60
2019-02-28T06:47:59.586Z,75.21
2019-02-28T06:50:30.931Z,75.98
2019-02-28T06:53:02.317Z,75.50
2019-02-28T06:55:33.652Z,75.18
2019-02-28T06:58:05.134Z,74.66
2019-02-28T07:00:36.594Z,74.11
2019-02-28T07:03:08.050Z,74.31
2019-02-28T07:05:39.369Z,74.50
2019-02-28T07:08:10.818Z,73.86
2019-02-28T07:10:44.928Z,73.55
2019-02-28T07:13:15.338Z,72.99
2019-02-28T07:15:46.679Z,73.18
2019-02-28T07:18:18.871Z,72.87
2019-02-28T07:20:51.468Z,73.18
2019-02-28T07:23:22.779Z,73.39
2019-02-28T07:25:54.251Z,72.89
2019-02-28T07:28:25.695Z,71.59
2019-02-28T07:30:57.018Z,71.14
2019-02-28T07:33:28.385Z,71.79
2019-02-28T07:35:59.892Z,71.85
2019-02-28T07:38:31.316Z,71.47
2019-02-28T07:41:02.735Z,70.77
2019-02-28T07:43:34.312Z,71.20
2019-02-28T07:46:07.658Z,71.20
2019-02-28T07:48:38.854Z,70.13
2019-02-28T07:51:10.180Z,70.75
2019-02-28T07:53:42.081Z,70.80
2019-02-28T07:56:12.913Z,70.87
2019-02-28T07:58:43.961Z,69.90
2019-02-28T08:01:15.351Z,70.55
2019-02-28T08:03:46.701Z,70.07
2019-02-28T08:06:18.076Z,69.46
2019-02-28T08:08:49.421Z,69.17
2019-02-28T08:11:21.000Z,68.79
2019-02-28T08:13:52.328Z,68.59
2019-02-28T08:16:23.704Z,68.12
2019-02-28T08:18:55.105Z,68.26
2019-02-28T08:21:26.565Z,67.56
2019-02-28T08:23:58.009Z,68.79
2019-02-28T08:26:29.472Z,67.08
2019-02-28T08:29:00.948Z,68.37
2019-02-28T08:31:33.107Z,68.21
2019-02-28T08:34:04.581Z,67.75
2019-02-28T08:36:35.891Z,67.58
2019-02-28T08:39:10.059Z,68.58
2019-02-28T08:41:42.356Z,66.93
2019-02-28T08:44:13.682Z,67.30
2019-02-28T08:46:46.583Z,67.17
2019-02-28T08:49:18.218Z,67.44
2019-02-28T08:51:49.601Z,67.24
2019-02-28T08:54:26.251Z,66.33
2019-02-28T08:56:55.164Z,66.40
2019-02-28T08:59:26.575Z,65.58
2019-02-28T09:01:58.905Z,66.48
2019-02-28T09:04:30.275Z,66.02
2019-02-28T09:07:01.605Z,65.35
2019-02-28T09:09:34.475Z,65.04
2019-02-28T09:12:06.944Z,65.61
2019-02-28T09:14:38.299Z,64.67
2019-02-28T09:17:09.635Z,63.57
2019-02-28T09:19:41.090Z,62.87
2019-02-28T09:22:13.559Z,63.37
2019-02-28T09:24:46.832Z,63.36
2019-02-28T09:27:18.039Z,62.90
2019-02-28T09:29:54.516Z,62.89
2019-02-28T09:32:22.344Z,62.63
2019-02-28T09:34:53.570Z,63.06
2019-02-28T09:37:29.656Z,63.20
2019-02-28T09:39:57.977Z,63.14
2019-02-28T09:42:29.252Z,63.55
2019-02-28T09:45:06.778Z,62.98
2019-02-28T09:47:33.591Z,63.19
2019-02-28T09:50:07.823Z,62.95
2019-02-28T09:52:41.672Z,63.09
2019-02-28T09:55:12.805Z,63.12
2019-02-28T09:57:44.510Z,63.37
2019-02-28T10:00:21.254Z,64.06
2019-02-28T10:02:53.134Z,63.33
2019-02-28T10:05:24.814Z,63.38
2019-02-28T10:08:01.489Z,62.44
2019-02-28T10:10:33.056Z,61.34
2019-02-28T10:13:04.303Z,61.17
2019-02-28T10:15:38.698Z,59.89
2019-02-28T10:18:09.847Z,59.56
2019-02-28T10:20:41.603Z,60.06
2019-02-28T10:23:12.857Z,61.04
2019-02-28T10:25:44.080Z,60.54
2019-02-28T10:28:15.457Z,60.89
2019-02-28T10:30:47.211Z,61.11
2019-02-28T10:33:19.971Z,61.50
2019-02-28T10:35:51.165Z,62.01
2019-02-28T10:38:22.439Z,61.10
2019-02-28T10:40:53.803Z,62.09
2019-02-28T10:43:25.140Z,62.37
2019-02-28T10:45:56.471Z,62.91
2019-02-28T10:48:29.086Z,63.41
2019-02-28T10:51:12.666Z,63.50
2019-02-28T10:53:36.323Z,63.86
2019-02-28T10:56:08.235Z,63.81
2019-02-28T10:58:39.587Z,64.27
2019-02-28T11:01:12.038Z,64.69
2019-02-28T11:03:43.405Z,64.92
2019-02-28T11:06:14.868Z,64.97
2019-02-28T11:08:47.485Z,64.79
2019-02-28T11:11:19.393Z,65.12
2019-02-28T11:13:50.887Z,65.58
2019-02-28T11:16:23.689Z,65.44
2019-02-28T11:18:55.688Z,66.30
2019-02-28T11:21:29.895Z,66.51
2019-02-28T11:24:00.133Z,66.39
2019-02-28T11:26:31.492Z,66.70
2019-02-28T11:29:03.823Z,66.58
2019-02-28T11:31:35.454Z,66.32
2019-02-28T11:34:06.957Z,67.39
2019-02-28T11:36:38.349Z,67.13
2019-02-28T11:39:10.473Z,67.42
2019-02-28T11:41:41.912Z,67.42
2019-02-28T11:44:13.377Z,67.33
2019-02-28T11:46:44.798Z,66.96
2019-02-28T11:49:16.177Z,67.48
2019-02-28T11:51:49.373Z,67.34
2019-02-28T11:54:20.643Z,66.47
2019-02-28T11:56:52.011Z,67.17
2019-02-28T11:59:24.511Z,67.71
2019-02-28T12:01:56.785Z,67.44
2019-02-28T12:04:28.253Z,67.73
2019-02-28T12:07:00.993Z,67.71
2019-02-28T12:09:32.613Z,67.51
2019-02-28T12:12:04.028Z,67.50
2019-02-28T12:14:35.395Z,67.36
2019-02-28T12:17:06.722Z,68.02
2019-02-28T12:19:38.038Z,68.02
2019-02-28T12:22:12.075Z,68.10
2019-02-28T12:24:42.622Z,67.96
2019-02-28T12:27:13.881Z,67.77
2019-02-28T12:29:45.626Z,67.31
2019-02-28T12:32:18.405Z,68.11
2019-02-28T12:34:49.831Z,68.08
2019-02-28T12:37:22.127Z,68.08
2019-02-28T12:39:54.320Z,68.60
2019-02-28T12:42:25.737Z,68.05
2019-02-28T12:44:57.199Z,68.56
2019-02-28T12:47:30.513Z,69.29
2019-02-28T12:50:01.832Z,69.29
2019-02-28T12:52:33.265Z,69.44
2019-02-28T12:55:08.779Z,69.40
2019-02-28T12:57:40.179Z,69.57
2019-02-28T13:00:19.825Z,69.19
2019-02-28T13:02:49.779Z,69.15
2019-02-28T13:05:21.287Z,68.97
2019-02-28T13:07:52.645Z,69.81
2019-02-28T13:10:27.953Z,69.16
2019-02-28T13:13:05.802Z,69.00
2019-02-28T13:15:30.180Z,69.08
2019-02-28T13:18:07.113Z,69.54
2019-02-28T13:20:36.690Z,69.28
2019-02-28T13:23:08.127Z,68.98
2019-02-28T13:25:39.877Z,70.03
2019-02-28T13:28:11.195Z,69.50
2019-02-28T13:30:49.013Z,69.83
2019-02-28T13:33:16.209Z,70.10
2019-02-28T13:35:47.730Z,69.80
2019-02-28T13:38:19.825Z,70.34
2019-02-28T13:40:51.430Z,70.41
2019-02-28T13:43:22.959Z,70.21
2019-02-28T13:45:56.147Z,70.77
2019-02-28T13:48:33.154Z,70.21
2019-02-28T13:51:02.569Z,71.11
2019-02-28T13:53:33.986Z,71.05
2019-02-28T13:56:05.320Z,71.18
2019-02-28T13:58:36.712Z,70.98
2019-02-28T14:01:08.348Z,70.75
2019-02-28T14:03:42.343Z,71.53
2019-02-28T14:06:18.947Z,71.38
2019-02-28T14:08:47.751Z,71.66
2019-02-28T14:11:19.023Z,71.30
2019-02-28T14:13:50.307Z,71.35
2019-02-28T14:16:26.519Z,71.30
2019-02-28T14:18:54.833Z,71.37
2019-02-28T14:21:26.296Z,72.34
2019-02-28T14:23:59.097Z,72.22
2019-02-28T14:26:31.173Z,72.73
2019-02-28T14:29:01.875Z,72.15
2019-02-28T14:31:33.865Z,71.97
2019-02-28T14:34:05.701Z,72.88
2019-02-28T14:36:37.143Z,73.09
2019-02-28T14:39:11.018Z,72.28
2019-02-28T14:41:42.694Z,72.60
2019-02-28T14:44:14.175Z,72.45
2019-02-28T14:46:46.504Z,73.08
2019-02-28T14:49:17.990Z,72.93
2019-02-28T14:51:49.438Z,73.21
2019-02-28T14:54:21.869Z,73.19
2019-02-28T14:56:54.054Z,72.75
2019-02-28T14:59:28.565Z,73.23
2019-02-28T15:01:58.610Z,72.76
2019-02-28T15:04:30.090Z,73.87
2019-02-28T15:07:03.146Z,73.98
2019-02-28T15:09:34.893Z,74.01
2019-02-28T15:12:06.361Z,74.33
2019-02-28T15:14:40.516Z,74.40
2019-02-28T15:17:10.812Z,74.41
2019-02-28T15:19:42.136Z,74.34
2019-02-28T15:22:14.236Z,74.82
2019-02-28T15:24:46.784Z,74.31
2019-02-28T15:27:18.248Z,74.61
2019-02-28T15:29:51.014Z,74.45
2019-02-28T15:32:23.482Z,74.56
2019-02-28T15:34:55.256Z,75.11
2019-02-28T15:37:26.900Z,74.75
2019-02-28T15:39:58.146Z,74.87
2019-02-28T15:42:29.612Z,74.93
2019-02-28T15:45:03.955Z,74.64
2019-02-28T15:47:34.499Z,75.23
2019-02-28T15:50:09.162Z,75.24
2019-02-28T15:52:40.537Z,74.90
2019-02-28T15:55:16.683Z,75.35
2019-02-28T15:57:48.488Z,75.55
2019-02-28T16:00:31.479Z,75.13
2019-02-28T16:03:02.715Z,75.54
2019-02-28T16:05:34.148Z,75.63
2019-02-28T16:08:10.393Z,75.69
2019-02-28T16:10:38.686Z,75.71
2019-02-28T16:13:10.370Z,76.13
2019-02-28T16:15:43.214Z,75.28
2019-02-28T16:18:14.884Z,75.34
2019-02-28T16:20:46.338Z,75.92
2019-02-28T16:23:18.652Z,76.00
2019-02-28T16:25:50.263Z,76.28
2019-02-28T16:28:21.828Z,76.44
2019-02-28T16:30:53.183Z,76.15
2019-02-28T16:33:25.552Z,76.42
2019-02-28T16:35:56.965Z,75.94
2019-02-28T16:38:29.811Z,75.98
2019-02-28T16:41:01.553Z,76.54
2019-02-28T16:43:33.999Z,76.62
2019-02-28T16:46:05.573Z,76.92
2019-02-28T16:48:37.247Z,76.51
2019-02-28T16:51:10.352Z,77.03
2019-02-28T16:53:41.655Z,76.99
2019-02-28T16:56:13.031Z,77.37
2019-02-28T16:58:44.452Z,77.24
2019-02-28T17:01:17.463Z,77.69
2019-02-28T17:03:49.446Z,77.67
2019-02-28T17:06:21.939Z,77.70
2019-02-28T17:08:55.352Z,78.31
2019-02-28T17:11:26.690Z,78.11
2019-02-28T17:14:02.599Z,77.00
2019-02-28T17:16:44.741Z,77.53
2019-02-28T17:19:15.550Z,77.73
2019-02-28T17:21:48.720Z,77.53
2019-02-28T17:24:19.732Z,78.33
2019-02-28T17:26:52.728Z,78.25
2019-02-28T17:29:26.118Z,77.96
2019-02-28T17:31:57.757Z,77.43
2019-02-28T17:34:29.221Z,77.65
2019-02-28T17:37:00.563Z,77.98
2019-02-28T17:39:33.361Z,78.12
2019-02-28T17:42:08.588Z,78.38
2019-02-28T17:44:43.362Z,78.19
2019-02-28T17:47:20.666Z,77.99
2019-02-28T17:50:05.848Z,77.71
2019-02-28T17:53:07.079Z,77.60
2019-02-28T17:55:48.321Z,77.17
2019-02-28T17:58:32.630Z,77.95
2019-02-28T18:01:28.375Z,77.96
2019-02-28T18:04:01.370Z,78.02
2019-02-28T18:07:06.100Z,77.69
2019-02-28T18:09:45.003Z,77.82
2019-02-28T18:12:52.842Z,77.76
2019-02-28T18:15:30.449Z,78.07
2019-02-28T18:18:10.888Z,77.72
2019-02-28T18:20:48.072Z,78.13
2019-02-28T18:23:37.143Z,77.50
2019-02-28T18:26:20.606Z,77.41
2019-02-28T18:28:58.816Z,77.65
2019-02-28T18:31:30.441Z,77.22
2019-02-28T18:34:01.886Z,77.97
2019-02-28T18:36:33.325Z,77.35
2019-02-28T18:39:08.078Z,77.17
2019-02-28T18:41:42.243Z,77.55
2019-02-28T18:44:13.714Z,77.93
2019-02-28T18:46:45.267Z,77.69
2019-02-28T18:49:16.676Z,77.54
2019-02-28T18:51:49.284Z,77.49
2019-02-28T18:54:21.845Z,77.84
2019-02-28T18:56:53.164Z,77.25
2019-02-28T18:59:24.477Z,77.50
2019-02-28T19:01:55.897Z,76.93
2019-02-28T19:04:27.362Z,77.27
2019-02-28T19:06:58.804Z,76.88
2019-02-28T19:09:30.141Z,76.99
2019-02-28T19:12:01.607Z,77.05
2019-02-28T19:14:33.275Z,77.33
2019-02-28T19:17:04.654Z,77.14
2019-02-28T19:19:36.072Z,77.23
2019-02-28T19:22:07.520Z,77.53
2019-02-28T19:24:40.296Z,77.60
2019-02-28T19:27:13.432Z,77.18
2019-02-28T19:29:46.111Z,77.23
2019-02-28T19:32:17.467Z,77.36
2019-02-28T19:34:48.837Z,77.45
2019-02-28T19:37:20.413Z,77.39
2019-02-28T19:39:51.849Z,77.57
2019-02-28T19:42:25.390Z,77.47
2019-02-28T19:44:56.808Z,77.00
2019-02-28T19:47:28.349Z,77.82
2019-02-28T19:49:59.866Z,78.04
2019-02-28T19:52:31.222Z,77.57
2019-02-28T19:55:02.746Z,78.33
2019-02-28T19:57:34.135Z,78.38
2019-02-28T20:00:08.753Z,78.72
2019-02-28T20:02:40.342Z,78.57
2019-02-28T20:05:12.708Z,77.73
2019-02-28T20:07:44.079Z,77.63
2019-02-28T20:10:21.710Z,77.76
2019-02-28T20:12:53.290Z,77.14
2019-02-28T20:15:27.438Z,77.28
2019-02-28T20:18:00.790Z,77.17
2019-02-28T20:20:34.581Z,76.73
2019-02-28T20:23:06.234Z,76.89
2019-02-28T20:25:39.127Z,76.64
2019-02-28T20:28:11.079Z,75.72
2019-02-28T20:30:42.635Z,75.85
2019-02-28T20:33:15.980Z,75.71
2019-02-28T20:35:47.613Z,75.99
2019-02-28T20:38:18.930Z,75.52
2019-02-28T20:40:50.320Z,75.53
2019-02-28T20:43:22.107Z,75.69
2019-02-28T20:45:53.506Z,75.63
2019-02-28T20:48:24.871Z,75.42
2019-02-28T20:50:56.108Z,75.42
2019-02-28T20:53:27.446Z,75.91
2019-02-28T20:55:58.817Z,75.67
2019-02-28T20:58:31.767Z,75.49
2019-02-28T21:01:03.429Z,75.60
2019-02-28T21:03:38.962Z,74.80
2019-02-28T21:06:13.591Z,74.90
2019-02-28T21:08:48.913Z,74.38
2019-02-28T21:11:22.031Z,74.74
2019-02-28T21:13:57.528Z,74.63
2019-02-28T21:16:32.450Z,74.44
2019-02-28T21:19:07.918Z,74.72
2019-02-28T21:21:42.576Z,74.35
2019-02-28T21:24:15.797Z,73.59
2019-02-28T21:26:47.124Z,73.87
2019-02-28T21:29:18.498Z,73.84
2019-02-28T21:31:50.238Z,73.67
2019-02-28T21:34:21.565Z,73.11
2019-02-28T21:36:52.991Z,73.24
2019-02-28T21:39:24.463Z,72.29
2019-02-28T21:41:55.941Z,72.43
2019-02-28T21:44:27.502Z,72.52
2019-02-28T21:46:58.984Z,72.61
2019-02-28T21:49:31.458Z,72.88
2019-02-28T21:52:02.769Z,72.71
2019-02-28T21:54:34.063Z,71.60
2019-02-28T21:57:05.551Z,70.74
2019-02-28T21:59:38.299Z,70.00
2019-02-28T22:02:14.563Z,70.10
2019-02-28T22:04:45.959Z,70.00
2019-02-28T22:07:17.300Z,70.12
2019-02-28T22:09:48.779Z,70.01
2019-02-28T22:12:20.138Z,70.86
2019-02-28T22:14:52.874Z,70.70
2019-02-28T22:17:24.211Z,70.65
2019-02-28T22:19:55.635Z,71.06
2019-02-28T22:22:27.034Z,72.58
2019-02-28T22:24:58.442Z,72.58
2019-02-28T22:27:29.776Z,73.50
2019-02-28T22:30:02.694Z,72.96
2019-02-28T22:32:37.212Z,73.69
2019-02-28T22:35:10.158Z,72.98
2019-02-28T22:37:41.511Z,73.75
2019-02-28T22:40:12.878Z,74.11
2019-02-28T22:42:44.279Z,73.69
2019-02-28T22:45:15.662Z,74.68
2019-02-28T22:47:47.059Z,75.05
2019-02-28T22:50:18.537Z,74.90
2019-02-28T22:52:49.856Z,75.91
2019-02-28T22:55:21.171Z,76.51
2019-02-28T22:57:52.576Z,76.28
2019-02-28T23:00:43.716Z,77.48
2019-02-28T23:03:15.655Z,77.43
2019-02-28T23:05:46.985Z,77.91
2019-02-28T23:08:18.347Z,78.19
2019-02-28T23:10:49.722Z,78.51
2019-02-28T23:13:21.074Z,78.77
2019-02-28T23:15:52.423Z,78.19
2019-02-28T23:18:23.745Z,78.27
2019-02-28T23:20:55.188Z,78.05
2019-02-28T23:23:26.531Z,78.08
2019-02-28T23:26:09.122Z,78.04
2019-02-28T23:28:46.515Z,78.90
2019-02-28T23:31:39.977Z,78.49
2019-02-28T23:34:20.419Z,78.32
2019-02-28T23:36:51.805Z,79.08
2019-02-28T23:39:24.722Z,78.81
2019-02-28T23:41:56.067Z,78.33
2019-02-28T23:44:27.532Z,78.79
2019-02-28T23:46:59.210Z,78.73
2019-02-28T23:49:30.537Z,78.84
2019-02-28T23:52:01.918Z,78.47
2019-02-28T23:54:33.693Z,79.43
2019-02-28T23:57:05.072Z,79.02
2019-02-28T23:59:36.407Z,79.22
